Medford, Indiana
Current Conditions -  °F | °C
As of 4:00 PM on Sunday 23 Nov 2014 (Local Time) from KMIE Reporting Station
Light Rain Light Rain  
Wind Chill: 52°   Ceiling: 3000
Heat Index: 52°   Visibility: 3mi
Dew Point: 49°   Wind: 14mph
Humidity: 89%   Direction: 150°SSE
Pressure: 29.59"   Gusts: NA
Location:  40.1286°N, 85.3767°W
Report Text: KMIE 232100Z 15012KT 3SM -RA BR SCT013 OVC030 11/09 A2959 RMK AO2 P0001 T01110094
Loading
Personal Weather Stations






























Interactive Weather Map New forecast layout! Learn more

10-Day Weather Forecast

Advertisements
Track Severe Weather on mobile